createdAt,value
2018-02-09T11:08:45.884Z,6.00
2018-02-09T11:11:18.406Z,8.10
2018-02-09T11:13:55.851Z,7.00
2018-02-09T11:18:18.347Z,3.80
2018-02-09T11:20:44.680Z,3.00
2018-02-09T11:23:10.928Z,2.70
2018-02-09T11:25:40.354Z,2.50
2018-02-09T11:28:07.307Z,2.40
2018-02-09T11:30:34.339Z,2.20
2018-02-09T11:33:00.555Z,2.20
2018-02-09T11:35:29.962Z,2.40
2018-02-09T11:37:58.366Z,2.40
2018-02-09T11:40:24.616Z,2.50
2018-02-09T11:42:50.863Z,2.50
2018-02-09T11:45:21.306Z,2.50
2018-02-09T11:47:48.498Z,2.60
2018-02-09T11:50:16.464Z,2.70
2018-02-09T11:52:45.534Z,2.70
2018-02-09T11:55:18.324Z,2.70
2018-02-09T11:57:55.781Z,2.80
2018-02-09T12:00:22.471Z,3.10
2018-02-09T12:02:48.791Z,3.00
2018-02-09T12:05:15.051Z,3.20
2018-02-09T12:07:41.323Z,3.40
2018-02-09T12:10:07.549Z,3.40
2018-02-09T12:12:33.811Z,3.50
2018-02-09T12:15:00.033Z,3.70
2018-02-09T12:17:27.208Z,3.80
2018-02-09T12:19:53.430Z,3.80
2018-02-09T12:22:20.415Z,3.50
2018-02-09T12:24:46.647Z,3.40
2018-02-09T12:27:12.951Z,3.40
2018-02-09T12:29:40.338Z,3.70
2018-02-09T12:32:07.309Z,3.60
2018-02-09T12:34:34.806Z,3.60
2018-02-09T12:37:01.907Z,3.20
2018-02-09T12:39:28.146Z,3.20
2018-02-09T12:41:54.623Z,3.40
2018-02-09T12:44:20.908Z,3.70
2018-02-09T12:46:47.164Z,3.80
2018-02-09T12:49:13.705Z,4.00
2018-02-09T12:51:40.037Z,4.10
2018-02-09T12:54:06.344Z,4.10
2018-02-09T12:56:33.310Z,4.00
2018-02-09T12:58:59.648Z,4.10
2018-02-09T13:01:25.886Z,4.20
2018-02-09T13:03:52.191Z,4.30
2018-02-09T13:06:18.583Z,4.40
2018-02-09T13:08:44.871Z,4.60
2018-02-09T13:11:11.101Z,4.60
2018-02-09T13:13:37.371Z,4.50
2018-02-09T13:16:04.604Z,4.00
2018-02-09T13:18:43.100Z,3.90
2018-02-09T13:21:09.344Z,4.00
2018-02-09T13:23:47.755Z,4.10
2018-02-09T13:26:14.764Z,4.30
2018-02-09T13:28:53.846Z,4.30
2018-02-09T13:31:20.105Z,4.00
2018-02-09T13:33:47.215Z,4.10
2018-02-09T13:36:19.641Z,4.10
2018-02-09T13:38:45.936Z,4.20
2018-02-09T13:41:12.194Z,4.30
2018-02-09T13:43:39.211Z,4.70
2018-02-09T13:46:05.455Z,4.70
2018-02-09T13:48:32.486Z,4.50
2018-02-09T13:50:58.719Z,4.40
2018-02-09T13:53:24.983Z,4.30
2018-02-09T13:55:51.958Z,4.70
2018-02-09T13:58:18.223Z,4.70
2018-02-09T14:00:44.457Z,4.90
2018-02-09T14:03:11.297Z,4.90
2018-02-09T14:05:37.532Z,4.90
2018-02-09T14:08:03.795Z,5.00
2018-02-09T14:10:30.025Z,4.70
2018-02-09T14:12:56.271Z,4.60
2018-02-09T14:15:22.528Z,4.90
2018-02-09T14:17:54.523Z,5.00
2018-02-09T14:20:21.230Z,5.00
2018-02-09T14:22:47.484Z,4.80
2018-02-09T14:25:13.710Z,4.70
2018-02-09T14:27:39.975Z,4.60
2018-02-09T14:30:06.186Z,4.20
2018-02-09T14:32:32.437Z,4.10
2018-02-09T14:34:58.675Z,4.00
2018-02-09T14:37:25.279Z,3.90
2018-02-09T14:39:51.519Z,4.00
2018-02-09T14:42:17.797Z,3.80
2018-02-09T14:44:45.309Z,3.50
2018-02-09T14:47:12.323Z,3.30
2018-02-09T14:49:38.666Z,3.30
2018-02-09T14:52:04.880Z,3.20
2018-02-09T14:54:31.138Z,3.30
2018-02-09T14:56:57.356Z,3.70
2018-02-09T14:59:23.615Z,4.20
2018-02-09T15:01:49.838Z,4.90
2018-02-09T15:04:16.083Z,5.70
2018-02-09T15:06:43.327Z,6.10
2018-02-09T15:09:09.672Z,5.90
2018-02-09T15:11:35.888Z,5.40
2018-02-09T15:14:02.227Z,5.10
2018-02-09T15:16:28.459Z,4.70
2018-02-09T15:18:54.732Z,4.30
2018-02-09T15:21:21.699Z,3.80
2018-02-09T15:23:48.039Z,3.80
2018-02-09T15:26:14.283Z,3.70
2018-02-09T15:28:41.138Z,3.50
2018-02-09T15:31:08.088Z,3.50
2018-02-09T15:33:34.375Z,3.60
2018-02-09T15:36:07.046Z,3.90
2018-02-09T15:38:33.299Z,4.20
2018-02-09T15:40:59.643Z,4.30
2018-02-09T15:43:25.895Z,4.30
2018-02-09T15:45:52.284Z,4.00
2018-02-09T15:48:18.530Z,3.70
2018-02-09T15:50:44.755Z,3.40
2018-02-09T15:53:11.006Z,3.10
2018-02-09T15:55:37.228Z,2.90
2018-02-09T15:58:03.496Z,2.70
2018-02-09T16:00:29.728Z,2.60
2018-02-09T16:02:56.011Z,2.60
2018-02-09T16:05:22.258Z,2.40
2018-02-09T16:07:48.487Z,2.20
2018-02-09T16:10:14.755Z,2.10
2018-02-09T16:12:41.073Z,2.20
2018-02-09T16:15:07.314Z,2.00
2018-02-09T16:17:33.656Z,1.90
2018-02-09T16:19:59.891Z,1.90
2018-02-09T16:22:26.877Z,1.80
2018-02-09T16:24:53.126Z,1.80
2018-02-09T16:27:19.380Z,1.80
2018-02-09T16:29:45.630Z,1.80
2018-02-09T16:32:12.615Z,1.80
2018-02-09T16:34:38.864Z,1.80
2018-02-09T16:37:05.106Z,1.80
2018-02-09T16:39:46.306Z,1.80
2018-02-09T16:42:12.595Z,1.80
2018-02-09T16:44:38.879Z,1.90
2018-02-09T16:47:05.951Z,1.90
2018-02-09T16:49:32.197Z,1.90
2018-02-09T16:51:58.476Z,1.90
2018-02-09T16:54:25.044Z,1.80
2018-02-09T16:56:51.454Z,1.80
2018-02-09T16:59:17.717Z,1.80
2018-02-09T17:01:44.009Z,1.90
2018-02-09T17:04:10.266Z,1.90
2018-02-09T17:06:37.355Z,2.00
2018-02-09T17:09:03.619Z,1.90
2018-02-09T17:11:30.185Z,1.90
2018-02-09T17:13:56.464Z,1.90
2018-02-09T17:16:22.703Z,1.90
2018-02-09T17:18:49.083Z,2.00
2018-02-09T17:21:16.043Z,1.90
2018-02-09T17:23:43.219Z,1.90
2018-02-09T17:26:09.460Z,1.90
2018-02-09T17:28:35.675Z,1.90
2018-02-09T17:31:01.942Z,2.00
2018-02-09T17:33:28.175Z,2.00
2018-02-09T17:35:54.422Z,1.90
2018-02-09T17:38:20.647Z,2.00
2018-02-09T17:40:46.895Z,2.10
2018-02-09T17:43:13.139Z,2.10
2018-02-09T17:45:39.404Z,2.10
2018-02-09T17:48:05.647Z,2.00
2018-02-09T17:50:31.923Z,2.00
2018-02-09T17:52:58.151Z,2.00
2018-02-09T17:55:24.408Z,2.10
2018-02-09T17:57:50.783Z,2.00
2018-02-09T18:00:17.051Z,2.10
2018-02-09T18:02:44.020Z,2.10
2018-02-09T18:05:10.271Z,2.10
2018-02-09T18:07:36.478Z,2.20
2018-02-09T18:10:02.756Z,2.10
2018-02-09T18:12:28.999Z,2.10
2018-02-09T18:14:55.247Z,2.10
2018-02-09T18:17:23.450Z,2.30
2018-02-09T18:19:56.503Z,2.30
2018-02-09T18:22:22.783Z,2.30
2018-02-09T18:24:49.066Z,2.20
2018-02-09T18:27:15.295Z,2.20
2018-02-09T18:29:41.567Z,2.20
2018-02-09T18:32:07.815Z,2.20
2018-02-09T18:34:34.072Z,2.20
2018-02-09T18:37:00.310Z,2.20
2018-02-09T18:39:26.940Z,2.20
2018-02-09T18:41:53.168Z,2.20
2018-02-09T18:44:19.392Z,2.20
2018-02-09T18:46:45.635Z,2.20
2018-02-09T18:49:11.862Z,2.20
2018-02-09T18:51:38.395Z,2.30
2018-02-09T18:54:04.616Z,2.30
2018-02-09T18:56:30.875Z,2.30
2018-02-09T18:58:57.094Z,2.30
2018-02-09T19:01:23.366Z,2.30
2018-02-09T19:03:49.594Z,2.30
2018-02-09T19:06:15.847Z,2.30
2018-02-09T19:08:42.131Z,2.30
2018-02-09T19:11:08.474Z,2.30
2018-02-09T19:13:34.708Z,2.40
2018-02-09T19:16:00.948Z,2.30
2018-02-09T19:18:27.175Z,2.30
2018-02-09T19:20:53.455Z,2.30
2018-02-09T19:23:19.679Z,2.30
2018-02-09T19:25:45.994Z,2.40
2018-02-09T19:28:14.011Z,2.30
2018-02-09T19:30:40.255Z,2.30
2018-02-09T19:33:06.552Z,2.30
2018-02-09T19:35:32.819Z,2.30
2018-02-09T19:37:59.153Z,2.30
2018-02-09T19:40:26.319Z,2.30
2018-02-09T19:42:52.560Z,2.30
2018-02-09T19:45:18.808Z,2.40
2018-02-09T19:47:45.044Z,2.40
2018-02-09T19:50:11.282Z,2.50
2018-02-09T19:52:37.595Z,2.40
2018-02-09T19:55:03.904Z,2.40
2018-02-09T19:57:30.140Z,2.40
2018-02-09T19:59:57.458Z,2.40
2018-02-09T20:02:23.720Z,2.40
2018-02-09T20:04:50.116Z,2.40
2018-02-09T20:07:16.436Z,2.40
2018-02-09T20:09:42.674Z,2.50
2018-02-09T20:12:08.942Z,2.50
2018-02-09T20:14:35.174Z,2.40
2018-02-09T20:17:02.164Z,2.40
2018-02-09T20:19:28.390Z,2.30
2018-02-09T20:21:54.647Z,2.40
2018-02-09T20:24:20.859Z,2.40
2018-02-09T20:26:47.118Z,2.40
2018-02-09T20:29:13.419Z,2.40
2018-02-09T20:31:39.699Z,2.50
2018-02-09T20:34:06.666Z,2.40
2018-02-09T20:36:32.938Z,2.40
2018-02-09T20:38:59.168Z,2.30
2018-02-09T20:41:25.506Z,2.30
2018-02-09T20:43:52.602Z,2.40
2018-02-09T20:46:20.827Z,2.40
2018-02-09T20:48:47.067Z,2.30
2018-02-09T20:51:17.339Z,2.30
2018-02-09T20:53:44.468Z,2.30
2018-02-09T20:56:10.722Z,2.30
2018-02-09T20:58:37.691Z,2.40
2018-02-09T21:01:03.922Z,2.30
2018-02-09T21:03:30.199Z,2.30
2018-02-09T21:05:56.458Z,2.30
2018-02-09T21:08:22.676Z,2.30
2018-02-09T21:10:48.915Z,2.40
2018-02-09T21:13:16.051Z,2.40
2018-02-09T21:15:42.745Z,2.30
2018-02-09T21:18:09.010Z,2.30
2018-02-09T21:20:35.236Z,2.30
2018-02-09T21:23:01.483Z,2.30
2018-02-09T21:25:27.715Z,2.30
2018-02-09T21:27:54.036Z,2.30
2018-02-09T21:30:20.423Z,2.30
2018-02-09T21:32:46.667Z,2.40
2018-02-09T21:35:12.911Z,2.30
2018-02-09T21:37:39.311Z,2.30
2018-02-09T21:40:05.537Z,2.30
2018-02-09T21:42:31.791Z,2.40
2018-02-09T21:44:58.025Z,2.40
2018-02-09T21:47:24.551Z,2.40
2018-02-09T21:49:50.786Z,2.40
2018-02-09T21:52:17.266Z,2.40
2018-02-09T21:54:43.499Z,2.40
2018-02-09T21:57:09.768Z,2.50
2018-02-09T21:59:35.999Z,2.50
2018-02-09T22:02:02.239Z,2.50
2018-02-09T22:04:28.524Z,2.50
2018-02-09T22:06:54.768Z,2.40
2018-02-09T22:09:21.920Z,2.50
2018-02-09T22:11:48.188Z,2.50
2018-02-09T22:14:14.430Z,2.50
2018-02-09T22:16:40.698Z,2.60
2018-02-09T22:19:06.950Z,2.60
2018-02-09T22:21:33.195Z,2.60
2018-02-09T22:24:00.211Z,2.60
2018-02-09T22:26:26.439Z,2.60
2018-02-09T22:28:52.706Z,2.70
2018-02-09T22:31:19.666Z,2.70
2018-02-09T22:33:45.901Z,2.70
2018-02-09T22:36:12.147Z,2.70
2018-02-09T22:38:38.399Z,2.60
2018-02-09T22:41:04.632Z,2.60
2018-02-09T22:43:30.922Z,2.60
2018-02-09T22:45:57.193Z,2.60
2018-02-09T22:48:23.543Z,2.60
2018-02-09T22:50:49.762Z,2.60
2018-02-09T22:53:16.031Z,2.70
2018-02-09T22:55:42.339Z,2.70
2018-02-09T22:58:09.603Z,2.70
2018-02-09T23:00:35.852Z,2.70
2018-02-09T23:03:02.116Z,2.70
2018-02-09T23:05:28.335Z,2.80
2018-02-09T23:07:54.848Z,2.80
2018-02-09T23:10:21.067Z,2.90
2018-02-09T23:12:47.353Z,2.90
2018-02-09T23:15:13.615Z,2.90
2018-02-09T23:17:39.887Z,2.90
2018-02-09T23:20:06.134Z,2.90
2018-02-09T23:22:32.802Z,2.90
2018-02-09T23:24:59.207Z,2.90
2018-02-09T23:27:25.438Z,3.00
2018-02-09T23:29:51.674Z,2.90
2018-02-09T23:32:17.951Z,2.90
2018-02-09T23:34:44.951Z,3.00
2018-02-09T23:37:11.216Z,3.00
2018-02-09T23:39:37.455Z,3.00
2018-02-09T23:42:04.498Z,3.00
2018-02-09T23:44:30.743Z,2.90
2018-02-09T23:46:57.723Z,3.00
2018-02-09T23:49:23.970Z,3.00
2018-02-09T23:51:50.195Z,3.00
2018-02-09T23:54:16.430Z,3.00
2018-02-09T23:56:42.639Z,3.00
2018-02-09T23:59:08.885Z,3.00
